Mantorville, Minnesota
Current Conditions -  °F | °C
As of 12:14 PM on Monday 22 Dec 2014 (Local Time) from KTOB Reporting Station
Moderate Rain Moderate Rain  
Wind Chill: 25°   Ceiling: 700
Heat Index: 36°   Visibility: 1.7mi
Dew Point: 36°   Wind: 17mph
Humidity: 100%   Direction: 140°SE
Pressure: 29.6"   Gusts: 22mph
Location:  44.07°N, 92.76°W
Report Text: KTOB 221814Z AUTO 14015G19KT 1 3/4SM RA OVC007 02/02 A2960 RMK AO2
Loading
Personal Weather Stations






























Interactive Weather Map New forecast layout! Learn more

10-Day Weather Forecast

Advertisements
Track Severe Weather on mobile